KB5PRZ Weather Reports


Display with metric or nautical units.
time (UTC)temp
F
wind
direction
speed
MPH
gust
MPH
rain 1hr
in
rain 24hr
in
rain mn
in
humidity
%
barometer
mb
20190326083506 59 16 4.0 9.0 0.00 0.00 0.00 72 1018.3
20190326083009 59 35 4.0 10.0 0.00 0.00 0.00 72 1018.3
20190326082508 59 32 5.0 11.0 0.00 0.00 0.00 73 1018.4
20190326082007 59 29 4.0 9.0 0.00 0.00 0.00 73 1018.6
20190326081506 59 35 2.0 7.0 0.00 0.00 0.00 73 1018.5
20190326081007 59 31 4.0 9.0 0.00 0.00 0.00 72 1018.3
20190326080507 59 20 4.0 8.0 0.00 0.00 0.00 72 1018.3
20190326080008 60 35 5.0 9.0 0.00 0.00 0.00 72 1018.3
20190326075507 60 26 4.0 9.0 0.00 0.00 0.00 72 1018.3
20190326075007 60 32 4.0 9.0 0.00 0.00 0.00 72 1018.3
20190326074506 60 34 2.0 7.0 0.00 0.00 0.00 72 1018.3
20190326074007 60 32 4.0 9.0 0.00 0.00 0.00 72 1018.3
20190326073507 60 35 4.0 8.0 0.00 0.00 0.00 71 1018.3
20190326073007 60 40 3.0 11.0 0.00 0.00 0.00 70 1018.3
20190326072506 60 31 3.0 9.0 0.00 0.00 0.00 70 1018.3
20190326072008 60 30 2.0 6.0 0.00 0.00 0.00 70 1018.3
20190326071506 60 33 4.0 8.0 0.00 0.00 0.00 69 1018.3
20190326071006 61 27 3.0 7.0 0.00 0.00 0.00 69 1018.3
20190326070507 61 37 3.0 7.0 0.00 0.00 0.00 69 1018.3
20190326070007 61 27 2.0 8.0 0.00 0.00 0.00 69 1018.3
20190326065506 61 38 3.0 7.0 0.00 0.00 0.00 69 1018.3
20190326065008 61 32 3.0 9.0 0.00 0.00 0.00 68 1018.3
20190326064507 61 44 3.0 9.0 0.00 0.00 0.00 68 1018.2
20190326064007 61 36 2.0 9.0 0.00 0.00 0.00 67 1017.9
20190326063507 61 28 3.0 9.0 0.00 0.00 0.00 67 1017.9
20190326063008 62 20 5.0 11.0 0.00 0.00 0.00 66 1017.9
20190326062506 62 32 3.0 9.0 0.00 0.00 0.00 66 1017.9
20190326062008 62 28 6.0 11.0 0.00 0.00 0.00 65 1017.9
20190326061507 62 29 4.0 9.0 0.00 0.00 0.00 65 1017.8
20190326061007 62 38 3.0 8.0 0.00 0.00 0.00 65 1017.6
20190326060507 62 29 3.0 8.0 0.00 0.00 0.00 64 1017.7
20190326060008 62 29 6.0 11.0 0.00 0.00 0.00 63 1017.9
20190326055506 63 29 5.0 10.0 0.00 0.00 0.00 62 1017.8
20190326055007 63 28 6.0 11.0 0.00 0.00 0.00 62 1017.6
20190326054507 63 26 5.0 9.0 0.00 0.00 0.00 62 1017.6
20190326054007 63 29 6.0 13.0 0.00 0.00 0.00 61 1017.6
20190326053507 63 41 4.0 9.0 0.00 0.00 0.00 60 1017.5
20190326053008 63 41 3.0 9.0 0.00 0.00 0.00 60 1017.2
20190326052508 63 30 3.0 8.0 0.00 0.00 0.00 60 1017.3
20190326052007 63 37 5.0 10.0 0.00 0.00 0.00 60 1017.6
20190326051506 64 33 5.0 9.0 0.00 0.00 0.00 60 1017.5
20190326051007 64 33 4.0 9.0 0.00 0.00 0.00 59 1017.2
20190326050507 64 46 2.0 8.0 0.00 0.00 0.00 59 1017.2
20190326045507 64 37 4.0 11.0 0.00 0.00 0.00 58 1017.2
20190326045007 64 39 2.0 6.0 0.00 0.00 0.00 58 1017.2
20190326044507 64 41 2.0 8.0 0.00 0.00 0.00 57 1017.1
20190326044007 64 30 4.0 10.0 0.00 0.00 0.00 57 1016.9
20190326043509 64 42 3.0 9.0 0.00 0.00 0.00 56 1016.9
20190326043007 65 38 3.0 9.0 0.00 0.00 0.00 56 1016.9
20190326042506 65 35 3.0 9.0 0.00 0.00 0.00 55 1016.9
20190326042007 65 30 5.0 10.0 0.00 0.00 0.00 55 1016.9
20190326041506 65 29 4.0 9.0 0.00 0.00 0.00 55 1016.8
20190326041007 65 19 5.0 10.0 0.00 0.00 0.00 55 1016.5
20190326040509 65 34 4.0 9.0 0.00 0.00 0.00 55 1016.5
20190326040006 65 32 1.0 6.0 0.00 0.00 0.00 55 1016.5
20190326035506 65 27 6.0 10.0 0.00 0.00 0.00 54 1016.4
20190326035008 66 28 3.0 7.0 0.00 0.00 0.00 54 1016.2
20190326034507 66 41 5.0 11.0 0.00 0.00 0.00 54 1016.2
20190326034008 66 24 5.0 9.0 0.00 0.00 0.00 54 1016.2
20190326033506 66 38 3.0 8.0 0.00 0.00 0.00 54 1016.2
20190326033009 66 14 3.0 7.0 0.00 0.00 0.00 54 1016.2
20190326032506 66 31 4.0 8.0 0.00 0.00 0.00 54 1016.1
20190326032008 66 39 3.0 7.0 0.00 0.00 0.00 54 1015.8
20190326031507 66 25 3.0 8.0 0.00 0.00 0.00 54 1015.8
20190326031008 67 23 4.0 8.0 0.00 0.00 0.00 53 1015.8
20190326030507 67 19 3.0 7.0 0.00 0.00 0.00 53 1015.8
20190326030007 67 34 5.0 11.0 0.00 0.00 0.00 53 1015.8
20190326025506 67 29 1.0 4.0 0.00 0.00 0.00 53 1015.5
20190326025008 67 34 2.0 7.0 0.00 0.00 0.00 53 1015.1
20190326024506 67 16 2.0 4.0 0.00 0.00 0.00 53 1015.1
20190326024008 67 36 1.0 5.0 0.00 0.00 0.00 52 1015.1
20190326023507 68 16 1.0 6.0 0.00 0.00 0.00 53 1015.0
20190326023007 68 26 1.0 6.0 0.00 0.00 0.00 52 1014.8
20190326022507 68 26 2.0 5.0 0.00 0.00 0.00 52 1014.8
20190326022007 68 46 3.0 8.0 0.00 0.00 0.00 51 1014.8
20190326021507 69 24 2.0 6.0 0.00 0.00 0.00 51 1014.8
20190326021007 69 22 3.0 8.0 0.00 0.00 0.00 51 1014.8
20190326020506 68 51 2.0 6.0 0.00 0.00 0.00 50 1014.7
20190326020008 69 29 3.0 8.0 0.00 0.00 0.00 50 1014.5
20190326015507 69 34 2.0 8.0 0.00 0.00 0.00 50 1014.5
20190326015007 69 10 2.0 6.0 0.00 0.00 0.00 50 1014.5
20190326014506 69 36 4.0 8.0 0.00 0.00 0.00 49 1014.5
20190326014008 69 23 2.0 7.0 0.00 0.00 0.00 50 1014.5
20190326013507 70 28 1.0 5.0 0.00 0.00 0.00 50 1014.5
20190326013009 70 28 2.0 6.0 0.00 0.00 0.00 49 1014.5
20190326012507 70 45 2.0 5.0 0.00 0.00 0.00 48 1014.4
20190326012007 70 30 3.0 7.0 0.00 0.00 0.00 48 1014.1
20190326011506 70 38 1.0 5.0 0.00 0.00 0.00 48 1014.1
20190326011008 71 41 1.0 5.0 0.00 0.00 0.00 47 1014.1
20190326010506 71 45 0.0 3.0 0.00 0.00 0.00 46 1014.0
20190326010008 71 22 0.0 3.0 0.00 0.00 0.00 46 1013.8
20190326005506 71 44 3.0 7.0 0.00 0.00 0.00 45 1013.8
20190326005007 72 34 4.0 10.0 0.00 0.00 0.00 45 1013.8
20190326004506 72 52 4.0 10.0 0.00 0.00 0.00 45 1013.8
20190326004008 72 29 5.0 11.0 0.00 0.00 0.00 45 1013.8
20190326003506 72 36 3.0 8.0 0.00 0.00 0.00 44 1013.8
20190326003009 73 38 3.0 11.0 0.00 0.00 0.00 44 1013.8
20190326002507 73 37 3.0 9.0 0.00 0.00 0.00 43 1013.6
20190326002008 73 43 4.0 9.0 0.00 0.00 0.00 43 1013.4
20190326001507 74 39 5.0 10.0 0.00 0.00 0.00 42 1013.4
20190326001008 73 31 5.0 12.0 0.00 0.00 0.00 41 1013.4
20190326000506 74 28 5.0 10.0 0.00 0.00 0.00 42 1013.4
20190326000008 74 16 5.0 11.0 0.00 0.00 0.00 42 1013.4
20190325235506 74 43 3.0 8.0 0.00 0.00 0.00 41 1013.3
20190325235007 74 42 3.0 10.0 0.00 0.00 0.00 39 1013.1
20190325234508 74 69 4.0 8.0 0.00 0.00 0.00 38 1013.1
20190325234008 75 48 5.0 12.0 0.00 0.00 0.00 36 1013.1
20190325233507 75 34 4.0 9.0 0.00 0.00 0.00 37 1013.1
20190325233008 75 39 6.0 12.0 0.00 0.00 0.00 36 1013.1
20190325232507 76 55 3.0 8.0 0.00 0.00 0.00 37 1013.1
20190325232006 76 25 3.0 6.0 0.00 0.00 0.00 36 1013.1
20190325231506 76 55 5.0 12.0 0.00 0.00 0.00 36 1013.0
20190325231007 76 22 5.0 10.0 0.00 0.00 0.00 37 1012.7
20190325230506 76 19 4.0 8.0 0.00 0.00 0.00 37 1012.6
20190325230008 76 22 5.0 11.0 0.00 0.00 0.00 38 1012.4
20190325225507 77 26 4.0 10.0 0.00 0.00 0.00 37 1012.4
20190325225008 77 45 3.0 8.0 0.00 0.00 0.00 35 1012.4
20190325224506 77 360 3.0 8.0 0.00 0.00 0.00 37 1012.4
20190325224006 77 38 4.0 12.0 0.00 0.00 0.00 37 1012.4
20190325223507 77 45 5.0 12.0 0.00 0.00 0.00 37 1012.4
20190325223008 77 62 4.0 12.0 0.00 0.00 0.00 40 1012.4
20190325222507 77 50 6.0 12.0 0.00 0.00 0.00 41 1012.4
20190325222008 77 21 9.0 16.0 0.00 0.00 0.00 41 1012.4
20190325221508 77 24 8.0 13.0 0.00 0.00 0.00 41 1012.4
20190325221008 77 32 9.0 14.0 0.00 0.00 0.00 41 1012.4
20190325220507 77 34 6.0 12.0 0.00 0.00 0.00 41 1012.4
20190325220008 77 65 5.0 12.0 0.00 0.00 0.00 41 1012.4
20190325215506 78 32 6.0 11.0 0.00 0.00 0.00 41 1012.2
20190325215007 77 57 3.0 10.0 0.00 0.00 0.00 43 1012.0
20190325214507 77 68 7.0 14.0 0.00 0.00 0.00 43 1012.2
20190325214007 77 44 4.0 10.0 0.00 0.00 0.00 43 1012.4
20190325213507 78 54 5.0 10.0 0.00 0.00 0.00 42 1012.2
20190325213008 78 26 4.0 11.0 0.00 0.00 0.00 42 1011.7
20190325212506 78 46 3.0 8.0 0.00 0.00 0.00 41 1012.0
20190325212007 78 38 4.0 10.0 0.00 0.00 0.00 43 1012.4
20190325211507 77 353 5.0 10.0 0.00 0.00 0.00 43 1012.4
20190325211008 78 16 3.0 10.0 0.00 0.00 0.00 43 1012.4
20190325210507 78 40 3.0 7.0 0.00 0.00 0.00 44 1012.4
20190325210008 77 51 4.0 10.0 0.00 0.00 0.00 45 1012.4
20190325205507 77 36 8.0 15.0 0.00 0.00 0.00 45 1012.4
20190325205008 77 18 5.0 12.0 0.00 0.00 0.00 47 1012.4
20190325204507 76 354 6.0 12.0 0.00 0.00 0.00 50 1012.4
20190325204007 77 46 7.0 16.0 0.00 0.00 0.00 51 1012.4
20190325203507 77 10 4.0 10.0 0.00 0.00 0.00 55 1012.5
20190325203009 76 18 7.0 13.0 0.00 0.00 0.00 56 1012.7
20190325202506 76 19 6.0 13.0 0.00 0.00 0.00 58 1012.7
20190325202007 76 23 4.0 10.0 0.00 0.00 0.00 59 1012.7
20190325201507 74 11 5.0 13.0 0.00 0.00 0.00 59 1012.7
20190325201007 75 42 7.0 14.0 0.00 0.00 0.00 60 1012.7
20190325200507 75 12 8.0 15.0 0.00 0.00 0.00 60 1012.7
20190325200009 75 40 8.0 15.0 0.00 0.00 0.00 61 1012.7
20190325195507 76 9 6.0 11.0 0.00 0.00 0.00 62 1012.7
20190325195007 76 46 4.0 10.0 0.00 0.00 0.00 62 1012.7
20190325194507 76 39 4.0 8.0 0.00 0.00 0.00 62 1012.7
20190325194007 76 24 4.0 9.0 0.00 0.00 0.00 61 1012.7
20190325193507 76 19 4.0 9.0 0.00 0.00 0.00 64 1012.7
20190325193008 75 10 5.0 10.0 0.00 0.00 0.00 65 1012.7
20190325192506 76 46 4.0 9.0 0.00 0.00 0.00 65 1012.8
20190325192007 75 37 6.0 11.0 0.00 0.00 0.00 63 1013.1
20190325191008 75 23 6.0 12.0 0.00 0.00 0.00 64 1013.1
20190325190507 74 39 6.0 12.0 0.00 0.00 0.00 66 1013.1
20190325190007 76 24 4.0 11.0 0.00 0.00 0.00 64 1013.1
20190325185506 76 5 6.0 12.0 0.00 0.00 0.00 65 1013.2
20190325185007 76 37 4.0 9.0 0.00 0.00 0.00 65 1013.4
20190325184507 76 346 5.0 11.0 0.00 0.00 0.00 64 1013.3
20190325184007 76 356 4.0 11.0 0.00 0.00 0.00 64 1013.1
20190325183507 76 12 2.0 6.0 0.00 0.00 0.00 64 1013.1
20190325183009 75 25 4.0 10.0 0.00 0.00 0.00 66 1013.1
20190325182507 75 36 5.0 12.0 0.00 0.00 0.00 66 1013.2
20190325182007 76 326 4.0 9.0 0.00 0.00 0.00 67 1013.4
20190325181506 76 329 4.0 10.0 0.00 0.00 0.00 65 1013.4
20190325181007 75 5 5.0 11.0 0.00 0.00 0.00 66 1013.4
20190325180507 75 23 5.0 12.0 0.00 0.00 0.00 66 1013.4
20190325180008 76 12 5.0 12.0 0.00 0.00 0.00 66 1013.4
20190325175507 75 356 4.0 11.0 0.00 0.00 0.00 65 1013.4
20190325175007 75 25 5.0 12.0 0.00 0.00 0.00 67 1013.4
20190325174507 75 48 5.0 11.0 0.00 0.00 0.00 68 1013.4
20190325174007 75 20 3.0 10.0 0.00 0.00 0.00 68 1013.4
20190325173506 75 20 3.0 9.0 0.00 0.00 0.00 68 1013.4
20190325173009 74 10 3.0 7.0 0.00 0.00 0.00 71 1013.4
20190325172507 74 38 3.0 8.0 0.00 0.00 0.00 73 1013.5
20190325172007 74 324 3.0 8.0 0.00 0.00 0.00 74 1013.8
20190325171507 74 29 7.0 13.0 0.00 0.00 0.00 75 1013.7
20190325171007 74 359 2.0 7.0 0.00 0.00 0.00 75 1013.4
20190325170507 75 27 3.0 6.0 0.00 0.00 0.00 75 1013.4
20190325170008 74 49 2.0 5.0 0.00 0.00 0.00 78 1013.4
20190325165507 74 24 3.0 6.0 0.00 0.00 0.00 79 1013.4
20190325165007 73 51 1.0 5.0 0.00 0.00 0.00 82 1013.4
20190325164506 73 34 5.0 9.0 0.00 0.00 0.00 81 1013.5
20190325164008 74 8 2.0 5.0 0.00 0.00 0.00 82 1013.8
20190325163506 73 7 3.0 6.0 0.00 0.00 0.00 84 1013.8
20190325163009 72 19 3.0 7.0 0.00 0.00 0.00 87 1013.8
20190325162507 72 28 4.0 9.0 0.00 0.00 0.00 86 1013.8
20190325162007 74 1 1.0 3.0 0.00 0.00 0.00 83 1013.8
20190325161507 73 353 2.0 5.0 0.00 0.00 0.00 85 1013.9
20190325161007 71 337 1.0 4.0 0.00 0.00 0.00 91 1014.1
20190325160507 71 33 2.0 6.0 0.00 0.00 0.00 94 1014.0
20190325160009 71 39 1.0 3.0 0.00 0.00 0.00 92 1013.8
20190325155506 72 321 2.0 5.0 0.00 0.00 0.00 90 1013.8
20190325155007 73 14 1.0 4.0 0.00 0.00 0.00 89 1013.8
20190325154507 72 12 0.0 2.0 0.00 0.00 0.00 91 1013.8
20190325154007 71 264 0.0 1.0 0.00 0.00 0.00 98 1013.8
20190325153507 70 316 1.0 4.0 0.00 0.00 0.00 97 1013.8
20190325153008 70 313 0.0 2.0 0.00 0.00 0.00 99 1013.8
20190325152507 70 337 0.0 1.0 0.00 0.00 0.00 100 1013.8
20190325152007 69 317 0.0 0.0 0.00 0.00 0.00 99 1013.8
20190325151506 68 247 0.0 0.0 0.00 0.00 0.00 98 1013.8
20190325151008 68 247 0.0 0.0 0.00 0.00 0.00 96 1013.8
20190325150507 68 247 0.0 0.0 0.00 0.00 0.00 94 1013.7
20190325150008 68 247 0.0 0.0 0.00 0.00 0.00 93 1013.4
20190325145506 68 247 0.0 0.0 0.00 0.00 0.00 93 1013.5
20190325145008 68 360 0.0 0.0 0.00 0.00 0.00 92 1013.8
20190325144507 68 360 0.0 1.0 0.00 0.00 0.00 92 1013.7
20190325144008 67 270 0.0 0.0 0.00 0.00 0.00 90 1013.4
20190325143507 67 270 0.0 0.0 0.00 0.00 0.00 90 1013.3
20190325143009 67 315 0.0 0.0 0.00 0.00 0.00 90 1013.1
20190325142507 67 360 0.0 0.0 0.00 0.00 0.00 88 1013.1
20190325142008 67 360 0.0 0.0 0.00 0.00 0.00 89 1013.1
20190325141507 67 360 0.0 0.0 0.00 0.00 0.00 87 1013.1
20190325141008 67 360 0.0 0.0 0.00 0.00 0.00 90 1013.1
20190325140508 67 360 0.0 0.0 0.00 0.00 0.00 93 1013.1
20190325140008 67 360 0.0 0.0 0.00 0.00 0.00 90 1013.1
20190325135507 67 360 0.0 0.0 0.00 0.00 0.00 91 1012.9
20190325135008 67 360 0.0 0.0 0.00 0.00 0.00 93 1012.7
20190325134506 67 360 0.0 0.0 0.00 0.00 0.00 92 1012.6
20190325134007 66 360 0.0 0.0 0.00 0.00 0.00 94 1012.4
20190325133507 67 360 0.0 0.0 0.00 0.00 0.00 95 1012.4
20190325133009 67 360 0.0 0.0 0.00 0.00 0.00 95 1012.4
20190325132507 67 360 0.0 0.0 0.00 0.00 0.00 94 1012.4
20190325132007 67 360 0.0 0.0 0.00 0.00 0.00 94 1012.4
20190325131507 67 360 0.0 0.0 0.00 0.00 0.00 94 1012.4
20190325131007 67 315 0.0 0.0 0.00 0.00 0.00 95 1012.4
20190325130507 67 270 0.0 0.0 0.00 0.00 0.00 95 1012.3
20190325130008 67 270 0.0 0.0 0.00 0.00 0.00 95 1012.0
20190325125507 67 270 0.0 0.0 0.00 0.00 0.00 95 1012.0
20190325125007 67 270 0.0 0.0 0.00 0.00 0.00 95 1011.7
20190325124507 67 225 0.0 0.0 0.00 0.00 0.00 95 1011.6
20190325124007 67 247 0.0 1.0 0.00 0.00 0.00 95 1011.3
20190325123507 67 225 0.0 1.0 0.00 0.00 0.00 96 1011.3
20190325123008 67 221 0.0 2.0 0.00 0.00 0.00 96 1011.3
20190325122507 67 241 0.0 0.0 0.00 0.00 0.00 97 1011.3
20190325122007 67 225 0.0 1.0 0.00 0.00 0.00 98 1011.3
20190325121507 67 270 0.0 1.0 0.00 0.00 0.00 98 1011.2
20190325121007 67 225 0.0 1.0 0.00 0.00 0.00 98 1011.0
20190325120507 67 246 1.0 4.0 0.00 0.00 0.00 99 1011.0
20190325120008 67 225 0.0 1.0 0.00 0.00 0.00 99 1011.0
20190325115506 67 226 2.0 5.0 0.00 0.00 0.00 99 1010.9
20190325115008 67 221 1.0 4.0 0.00 0.00 0.00 99 1010.6
20190325114507 67 230 2.0 5.0 0.00 0.00 0.00 99 1010.6
20190325114007 67 211 1.0 4.0 0.00 0.00 0.00 99 1010.6
20190325113507 67 212 1.0 5.0 0.00 0.00 0.00 99 1010.6
20190325113008 67 217 2.0 5.0 0.00 0.00 0.00 99 1010.6
20190325112507 67 210 0.0 2.0 0.00 0.00 0.00 99 1010.6
20190325112008 67 217 0.0 2.0 0.00 0.00 0.00 99 1010.3
20190325111507 67 207 0.0 3.0 0.00 0.00 0.00 99 1010.3
20190325111007 67 222 0.0 4.0 0.00 0.00 0.00 99 1010.3
20190325110506 67 208 1.0 6.0 0.00 0.00 0.00 99 1010.3
20190325110008 67 202 1.0 5.0 0.00 0.00 0.00 99 1010.3
20190325105507 67 231 1.0 5.0 0.00 0.00 0.00 99 1010.3
20190325105010 67 224 1.0 6.0 0.00 0.00 0.00 99 1010.3
20190325104506 67 250 2.0 5.0 0.00 0.00 0.00 100 1010.3
20190325104008 67 193 1.0 5.0 0.00 0.00 0.00 100 1010.3
20190325103507 67 218 3.0 6.0 0.00 0.00 0.00 100 1010.3
20190325102507 66 225 3.0 9.0 0.00 0.00 0.00 99 1010.3
20190325102007 67 227 2.0 6.0 0.00 0.00 0.00 99 1010.3
20190325101507 67 225 5.0 9.0 0.00 0.00 0.00 100 1010.3
20190325101007 67 235 4.0 10.0 0.00 0.00 0.00 100 1010.3
20190325100507 67 207 4.0 9.0 0.00 0.00 0.00 100 1010.3
20190325100008 67 211 5.0 11.0 0.00 0.00 0.00 100 1010.3
20190325095507 67 211 3.0 7.0 0.00 0.00 0.00 100 1010.3
20190325095007 67 208 4.0 9.0 0.00 0.00 0.00 100 1010.3
20190325094507 67 221 3.0 7.0 0.00 0.00 0.00 100 1010.3
20190325094007 67 214 2.0 7.0 0.00 0.00 0.00 100 1010.3
20190325093506 67 212 3.0 7.0 0.00 0.00 0.00 100 1010.3
20190325093008 67 216 2.0 5.0 0.00 0.00 0.00 100 1010.3
20190325092507 67 222 2.0 6.0 0.00 0.00 0.00 100 1010.3
20190325092007 67 192 0.0 3.0 0.00 0.00 0.00 100 1010.3
20190325091007 67 197 4.0 9.0 0.00 0.00 0.00 100 1010.3
20190325090506 67 188 4.0 9.0 0.00 0.00 0.00 100 1010.3
20190325090008 67 219 2.0 7.0 0.00 0.00 0.00 100 1010.3
20190325085507 67 215 4.0 10.0 0.00 0.00 0.00 100 1010.3
20190325085007 67 200 2.0 6.0 0.00 0.00 0.00 100 1010.3
20190325084506 67 203 1.0 5.0 0.00 0.00 0.00 100 1010.3
20190325084007 67 201 5.0 11.0 0.00 0.00 0.00 100 1010.3